createdAt,value
2023-02-03T00:01:47.330Z,9.53
2023-02-03T00:04:16.112Z,10.83
2023-02-03T00:06:44.674Z,11.00
2023-02-03T00:09:12.727Z,11.00
2023-02-03T00:11:41.231Z,10.80
2023-02-03T00:14:10.677Z,11.73
2023-02-03T00:16:38.776Z,11.73
2023-02-03T00:19:06.828Z,12.37
2023-02-03T00:21:34.855Z,11.83
2023-02-03T00:24:02.859Z,12.03
2023-02-03T00:26:31.032Z,11.53
2023-02-03T00:29:00.758Z,11.77
2023-02-03T00:31:30.250Z,11.30
2023-02-03T00:33:59.018Z,10.37
2023-02-03T00:36:27.896Z,11.00
2023-02-03T00:38:56.044Z,11.00
2023-02-03T00:41:24.363Z,10.27
2023-02-03T00:43:56.196Z,9.50
2023-02-03T00:46:24.223Z,10.40
2023-02-03T00:48:53.661Z,9.90
2023-02-03T00:51:22.243Z,9.90
2023-02-03T00:53:50.572Z,8.93
2023-02-03T00:56:18.641Z,8.47
2023-02-03T00:58:46.821Z,9.93
2023-02-03T01:01:15.004Z,9.33
2023-02-03T01:03:43.125Z,8.50
2023-02-03T01:06:18.364Z,8.20
2023-02-03T01:08:47.086Z,7.83
2023-02-03T01:11:17.823Z,6.90
2023-02-03T01:13:46.218Z,6.23
2023-02-03T01:16:15.839Z,6.33
2023-02-03T01:18:44.891Z,5.47
2023-02-03T01:21:16.131Z,5.57
2023-02-03T01:23:44.628Z,4.87
2023-02-03T01:26:14.924Z,4.40
2023-02-03T01:28:45.009Z,4.07
2023-02-03T01:31:15.284Z,3.90
2023-02-03T01:33:46.277Z,3.73
2023-02-03T01:36:19.332Z,3.30
2023-02-03T01:38:47.626Z,3.10
2023-02-03T01:41:18.422Z,3.60
2023-02-03T01:43:49.595Z,3.90
2023-02-03T01:46:26.983Z,3.23
2023-02-03T01:48:57.362Z,3.47
2023-02-03T01:51:26.965Z,2.70
2023-02-03T01:53:57.381Z,3.20
2023-02-03T01:56:31.242Z,3.00
2023-02-03T01:59:00.320Z,2.80
2023-02-03T02:01:29.528Z,3.03
2023-02-03T02:04:00.692Z,3.00
2023-02-03T02:06:30.393Z,2.90
2023-02-03T02:09:00.812Z,3.47
2023-02-03T02:11:30.716Z,3.40
2023-02-03T02:14:01.367Z,3.53
2023-02-03T02:16:39.912Z,3.43
2023-02-03T02:19:31.663Z,3.00
2023-02-03T02:22:10.014Z,2.67
2023-02-03T02:25:05.485Z,2.70
2023-02-03T02:27:58.374Z,2.60
2023-02-03T02:30:46.959Z,2.73
2023-02-03T02:33:24.584Z,4.10
2023-02-03T02:35:59.886Z,2.80
2023-02-03T02:38:44.132Z,3.00
2023-02-03T02:41:17.449Z,3.20
2023-02-03T02:43:51.219Z,2.43
2023-02-03T02:46:25.177Z,2.37
2023-02-03T02:48:58.776Z,2.67
2023-02-03T02:51:29.304Z,2.90
2023-02-03T02:54:01.391Z,2.73
2023-02-03T02:56:31.975Z,2.50
2023-02-03T02:59:02.949Z,2.43
2023-02-03T03:01:31.117Z,2.83
2023-02-03T03:04:04.652Z,2.60
2023-02-03T03:06:35.282Z,2.80
2023-02-03T03:09:07.262Z,2.43
2023-02-03T03:11:40.002Z,2.83
2023-02-03T03:14:10.342Z,2.60
2023-02-03T03:16:42.605Z,3.10
2023-02-03T03:19:17.325Z,2.90
2023-02-03T03:21:50.245Z,3.03
2023-02-03T03:24:23.302Z,3.17
2023-02-03T03:26:56.681Z,3.17
2023-02-03T03:29:31.244Z,2.90
2023-02-03T03:31:59.855Z,3.77
2023-02-03T03:34:30.867Z,2.90
2023-02-03T03:37:04.136Z,2.77
2023-02-03T03:39:42.834Z,3.50
2023-02-03T03:42:20.086Z,3.27
2023-02-03T03:45:00.575Z,3.40
2023-02-03T03:47:32.445Z,3.30
2023-02-03T03:50:04.486Z,3.10
2023-02-03T03:52:37.103Z,3.57
2023-02-03T03:55:14.301Z,4.43
2023-02-03T03:57:47.677Z,4.27
2023-02-03T04:00:21.111Z,3.97
2023-02-03T04:02:53.627Z,5.03
2023-02-03T04:05:25.321Z,4.13
2023-02-03T04:07:53.459Z,4.30
2023-02-03T04:10:27.914Z,4.00
2023-02-03T04:12:56.127Z,4.00
2023-02-03T04:15:24.183Z,4.20
2023-02-03T04:17:52.235Z,4.57
2023-02-03T04:20:20.384Z,4.63
2023-02-03T04:22:49.755Z,5.50
2023-02-03T04:25:18.207Z,4.10
2023-02-03T04:27:46.234Z,3.93
2023-02-03T04:30:15.649Z,4.70
2023-02-03T04:32:43.636Z,3.83
2023-02-03T04:35:11.933Z,4.20
2023-02-03T04:37:39.993Z,4.87
2023-02-03T04:40:11.467Z,4.93
2023-02-03T04:42:39.671Z,3.97
2023-02-03T04:45:10.148Z,4.23
2023-02-03T04:47:39.370Z,3.93
2023-02-03T04:50:08.425Z,4.20
2023-02-03T04:52:36.433Z,4.67
2023-02-03T04:55:04.553Z,4.73
2023-02-03T04:57:34.617Z,4.30
2023-02-03T05:00:02.697Z,4.40
2023-02-03T05:02:30.698Z,4.37
2023-02-03T05:04:58.718Z,5.27
2023-02-03T05:07:26.752Z,4.37
2023-02-03T05:09:54.760Z,3.90
2023-02-03T05:12:22.757Z,3.93
2023-02-03T05:14:52.142Z,4.30
2023-02-03T05:17:20.167Z,4.07
2023-02-03T05:19:48.278Z,4.37
2023-02-03T05:22:16.311Z,3.97
2023-02-03T05:24:44.323Z,3.70
2023-02-03T05:27:12.391Z,4.07
2023-02-03T05:29:40.394Z,4.40
2023-02-03T05:32:10.030Z,4.00
2023-02-03T05:34:38.966Z,3.77
2023-02-03T05:37:07.688Z,4.03
2023-02-03T05:39:35.745Z,4.17
2023-02-03T05:42:04.304Z,3.53
2023-02-03T05:44:32.412Z,3.93
2023-02-03T05:47:00.887Z,4.20
2023-02-03T05:49:30.313Z,3.93
2023-02-03T05:51:58.356Z,4.40
2023-02-03T05:54:26.683Z,3.90
2023-02-03T05:56:54.708Z,4.17
2023-02-03T05:59:23.111Z,4.30
2023-02-03T06:01:51.113Z,4.13
2023-02-03T06:04:19.247Z,4.57
2023-02-03T06:06:48.829Z,4.70
2023-02-03T06:09:16.823Z,4.60
2023-02-03T06:11:45.928Z,4.60
2023-02-03T06:14:13.996Z,4.60
2023-02-03T06:16:42.088Z,4.47
2023-02-03T06:19:10.290Z,4.70
2023-02-03T06:21:38.308Z,4.50
2023-02-03T06:24:08.194Z,4.93
2023-02-03T06:26:36.190Z,4.43
2023-02-03T06:29:04.193Z,4.70
2023-02-03T06:31:32.298Z,5.53
2023-02-03T06:34:02.563Z,5.27
2023-02-03T06:36:30.645Z,5.80
2023-02-03T06:38:59.238Z,4.87
2023-02-03T06:41:30.686Z,4.97
2023-02-03T06:43:58.824Z,4.43
2023-02-03T06:46:33.987Z,4.27
2023-02-03T06:49:02.301Z,4.40
2023-02-03T06:51:30.339Z,4.57
2023-02-03T06:53:58.807Z,5.20
2023-02-03T06:56:28.269Z,5.17
2023-02-03T06:58:57.723Z,5.00
2023-02-03T07:01:26.007Z,4.90
2023-02-03T07:03:57.856Z,4.57
2023-02-03T07:06:29.059Z,5.07
2023-02-03T07:08:57.298Z,5.10
2023-02-03T07:11:26.081Z,5.30
2023-02-03T07:13:55.596Z,4.33
2023-02-03T07:16:23.733Z,4.23
2023-02-03T07:18:51.775Z,5.23
2023-02-03T07:21:20.296Z,5.07
2023-02-03T07:23:49.128Z,5.03
2023-02-03T07:26:18.893Z,4.50
2023-02-03T07:28:47.064Z,5.20
2023-02-03T07:31:17.732Z,5.17
2023-02-03T07:33:45.976Z,5.83
2023-02-03T07:36:14.024Z,4.97
2023-02-03T07:38:42.121Z,5.53
2023-02-03T07:41:10.230Z,7.00
2023-02-03T07:43:39.397Z,6.60
2023-02-03T07:46:07.656Z,5.97
2023-02-03T07:48:37.165Z,5.80
2023-02-03T07:51:05.542Z,6.00
2023-02-03T07:53:34.230Z,5.70
2023-02-03T07:56:02.683Z,5.13
2023-02-03T07:58:31.241Z,6.43
2023-02-03T08:01:00.162Z,5.43
2023-02-03T08:03:28.326Z,5.37
2023-02-03T08:05:57.789Z,5.77
2023-02-03T08:08:32.218Z,4.90
2023-02-03T08:11:05.812Z,5.87
2023-02-03T08:13:38.100Z,6.83
2023-02-03T08:16:12.139Z,5.53
2023-02-03T08:18:40.173Z,6.23
2023-02-03T08:21:19.428Z,6.63
2023-02-03T08:23:47.464Z,6.73
2023-02-03T08:26:15.485Z,7.47
2023-02-03T08:28:44.566Z,7.37
2023-02-03T08:31:12.946Z,7.27
2023-02-03T08:33:41.119Z,7.60
2023-02-03T08:36:20.554Z,7.87
2023-02-03T08:38:48.743Z,9.23
2023-02-03T08:41:19.968Z,6.43
2023-02-03T08:43:48.145Z,7.37
2023-02-03T08:46:16.166Z,6.60
2023-02-03T08:48:44.211Z,7.30
2023-02-03T08:51:13.707Z,6.40
2023-02-03T08:53:43.207Z,6.37
2023-02-03T08:56:13.009Z,6.70
2023-02-03T08:58:41.068Z,6.47
2023-02-03T09:01:10.431Z,7.27
2023-02-03T09:03:47.218Z,6.97
2023-02-03T09:06:16.767Z,8.07
2023-02-03T09:08:46.930Z,7.27
2023-02-03T09:11:18.661Z,7.20
2023-02-03T09:13:46.917Z,6.97
2023-02-03T09:16:17.191Z,8.60
2023-02-03T09:18:47.525Z,7.20
2023-02-03T09:21:32.150Z,8.17
2023-02-03T09:24:06.082Z,8.87
2023-02-03T09:26:34.174Z,8.33
2023-02-03T09:29:02.832Z,9.17
2023-02-03T09:31:38.751Z,7.80
2023-02-03T09:34:07.862Z,8.77
2023-02-03T09:36:36.003Z,9.63
2023-02-03T09:39:05.712Z,8.73
2023-02-03T09:41:49.587Z,9.40
2023-02-03T09:44:24.022Z,9.90
2023-02-03T09:46:56.805Z,10.03
2023-02-03T09:49:29.784Z,9.37
2023-02-03T09:52:02.549Z,9.50
2023-02-03T09:54:42.448Z,11.10
2023-02-03T09:57:17.221Z,10.17
2023-02-03T09:59:45.336Z,12.07
2023-02-03T10:02:30.008Z,10.33
2023-02-03T10:05:02.655Z,9.63
2023-02-03T10:07:41.358Z,8.47
2023-02-03T10:10:18.982Z,9.47
2023-02-03T10:13:01.091Z,9.10
2023-02-03T10:15:58.038Z,9.00
2023-02-03T10:18:33.103Z,9.60
2023-02-03T10:21:05.945Z,9.80
2023-02-03T10:23:37.641Z,8.93
2023-02-03T10:26:10.610Z,8.73
2023-02-03T10:28:45.107Z,8.93
2023-02-03T10:31:20.411Z,8.70
2023-02-03T10:33:49.041Z,9.20
2023-02-03T10:36:21.809Z,9.50
2023-02-03T10:39:00.446Z,9.70
2023-02-03T10:41:31.847Z,9.77
2023-02-03T10:44:01.657Z,8.93
2023-02-03T10:46:32.283Z,9.60
2023-02-03T10:49:01.067Z,9.33
2023-02-03T10:51:31.826Z,8.63
2023-02-03T10:54:02.055Z,9.90
2023-02-03T10:56:36.291Z,9.57
2023-02-03T10:59:04.874Z,8.90
2023-02-03T11:01:42.668Z,9.47
2023-02-03T11:04:26.831Z,9.30
2023-02-03T11:06:57.349Z,9.53
2023-02-03T11:09:32.940Z,8.23
2023-02-03T11:12:13.043Z,9.23
2023-02-03T11:14:44.351Z,8.07
2023-02-03T11:17:18.595Z,9.07
2023-02-03T11:19:48.690Z,8.57
2023-02-03T11:22:29.845Z,10.60
2023-02-03T11:25:02.485Z,12.20
2023-02-03T11:27:34.397Z,11.57
2023-02-03T11:30:15.944Z,8.90
2023-02-03T11:32:46.008Z,8.30
2023-02-03T11:35:22.266Z,8.83
2023-02-03T11:37:53.803Z,9.33
2023-02-03T11:40:29.970Z,8.47
2023-02-03T11:43:04.955Z,8.83
2023-02-03T11:45:41.855Z,9.23
2023-02-03T11:48:23.108Z,8.00
2023-02-03T11:50:59.798Z,8.77
2023-02-03T11:53:33.367Z,9.93
2023-02-03T11:56:22.667Z,8.47
2023-02-03T11:59:29.121Z,8.77
2023-02-03T12:02:53.011Z,8.20
2023-02-03T12:05:51.029Z,8.60
2023-02-03T12:08:38.661Z,7.93
2023-02-03T12:11:13.855Z,8.00
2023-02-03T12:14:01.017Z,10.07
2023-02-03T12:16:55.733Z,7.93
2023-02-03T12:19:33.721Z,6.73
2023-02-03T12:22:09.965Z,7.80
2023-02-03T12:24:44.333Z,8.03
2023-02-03T12:27:25.563Z,7.53
2023-02-03T12:29:58.244Z,7.03
2023-02-03T12:32:35.192Z,9.07
2023-02-03T12:35:14.569Z,7.63
2023-02-03T12:37:47.827Z,6.80
2023-02-03T12:40:21.099Z,7.30
2023-02-03T12:42:55.441Z,6.83
2023-02-03T12:45:26.667Z,6.77
2023-02-03T12:48:00.038Z,7.07
2023-02-03T12:50:35.282Z,6.80
2023-02-03T12:53:08.379Z,6.83
2023-02-03T12:55:40.712Z,7.57
2023-02-03T12:58:14.713Z,7.33
2023-02-03T13:00:47.366Z,6.80
2023-02-03T13:03:28.058Z,7.47
2023-02-03T13:06:00.526Z,6.60
2023-02-03T13:08:35.195Z,7.40
2023-02-03T13:11:15.506Z,7.17
2023-02-03T13:13:49.233Z,7.73
2023-02-03T13:16:21.382Z,6.87
2023-02-03T13:18:55.983Z,6.50
2023-02-03T13:21:24.196Z,6.93
2023-02-03T13:23:52.583Z,7.23
2023-02-03T13:26:54.217Z,6.40
2023-02-03T13:29:42.456Z,8.83
2023-02-03T13:32:21.653Z,7.23
2023-02-03T13:35:33.234Z,7.30
2023-02-03T13:38:17.099Z,7.03
2023-02-03T13:40:55.955Z,6.50
2023-02-03T13:43:38.176Z,6.60
2023-02-03T13:46:14.040Z,8.00
2023-02-03T13:48:46.862Z,7.07
2023-02-03T13:51:17.922Z,7.80
2023-02-03T13:53:49.809Z,7.00
2023-02-03T13:56:22.018Z,7.30
2023-02-03T13:59:05.256Z,6.60
2023-02-03T14:01:37.081Z,7.80
2023-02-03T14:04:07.177Z,7.70
2023-02-03T14:07:01.384Z,7.63
2023-02-03T14:10:06.277Z,7.70
2023-02-03T14:12:36.052Z,6.67
2023-02-03T14:15:22.892Z,7.90
2023-02-03T14:18:00.302Z,7.90
2023-02-03T14:20:47.916Z,7.67
2023-02-03T14:23:21.701Z,7.47
2023-02-03T14:25:53.447Z,7.47
2023-02-03T14:28:23.904Z,7.77
2023-02-03T14:31:16.878Z,7.83
2023-02-03T14:34:05.149Z,7.20
2023-02-03T14:36:41.215Z,8.07
2023-02-03T14:39:48.761Z,7.40
2023-02-03T14:42:53.850Z,8.17
2023-02-03T14:45:36.820Z,8.60
2023-02-03T14:48:18.306Z,8.33
2023-02-03T14:50:58.176Z,7.70
2023-02-03T14:53:42.167Z,7.73
2023-02-03T14:56:20.546Z,8.70
2023-02-03T14:58:54.036Z,7.87
2023-02-03T15:01:28.897Z,7.60
2023-02-03T15:04:22.072Z,7.80
2023-02-03T15:06:51.904Z,9.43
2023-02-03T15:09:27.389Z,8.27
2023-02-03T15:11:55.828Z,8.17
2023-02-03T15:14:27.420Z,8.67
2023-02-03T15:17:00.748Z,8.20
2023-02-03T15:19:32.962Z,8.67
2023-02-03T15:22:01.716Z,9.10
2023-02-03T15:24:36.617Z,8.13
2023-02-03T15:27:04.727Z,9.57
2023-02-03T15:29:36.621Z,7.97
2023-02-03T15:32:11.046Z,8.67
2023-02-03T15:34:42.692Z,8.03
2023-02-03T15:37:18.185Z,8.70
2023-02-03T15:39:58.561Z,8.40
2023-02-03T15:42:31.050Z,8.67
2023-02-03T15:45:07.215Z,9.63
2023-02-03T15:47:38.552Z,9.20
2023-02-03T15:50:17.336Z,9.93
2023-02-03T15:52:47.350Z,9.70
2023-02-03T15:55:21.289Z,8.00
2023-02-03T15:57:51.544Z,8.70
2023-02-03T16:00:41.916Z,9.30
2023-02-03T16:03:21.479Z,8.07
2023-02-03T16:05:50.386Z,8.43
2023-02-03T16:08:38.707Z,8.57
2023-02-03T16:11:27.888Z,10.07
2023-02-03T16:13:57.237Z,8.53
2023-02-03T16:16:29.431Z,8.77
2023-02-03T16:19:00.027Z,8.60
2023-02-03T16:21:34.708Z,9.33
2023-02-03T16:24:03.545Z,9.43
2023-02-03T16:26:33.644Z,8.83
2023-02-03T16:29:31.123Z,9.20
2023-02-03T16:32:18.479Z,8.20
2023-02-03T16:35:04.354Z,10.43
2023-02-03T16:37:51.794Z,7.63
2023-02-03T16:40:39.480Z,8.13
2023-02-03T16:43:30.102Z,9.23
2023-02-03T16:46:17.255Z,9.10
2023-02-03T16:49:05.137Z,9.80
2023-02-03T16:51:40.130Z,9.97
2023-02-03T16:54:11.341Z,9.10
2023-02-03T16:56:39.382Z,8.90
2023-02-03T16:59:07.532Z,8.23
2023-02-03T17:01:35.778Z,9.50
2023-02-03T17:04:06.782Z,9.17
2023-02-03T17:06:37.817Z,9.43
2023-02-03T17:09:05.943Z,9.43
2023-02-03T17:11:33.953Z,9.53
2023-02-03T17:14:03.162Z,8.00
2023-02-03T17:16:33.341Z,8.23
2023-02-03T17:19:01.480Z,8.63
2023-02-03T17:21:31.607Z,8.73
2023-02-03T17:24:00.525Z,9.10
2023-02-03T17:26:28.685Z,9.90
2023-02-03T17:28:58.651Z,10.57
2023-02-03T17:31:26.821Z,9.33
2023-02-03T17:33:55.052Z,9.67
2023-02-03T17:36:23.496Z,10.20
2023-02-03T17:55:31.204Z,9.67
2023-02-03T17:57:59.510Z,9.30
2023-02-03T18:00:28.437Z,9.47
2023-02-03T18:02:57.748Z,9.63
2023-02-03T18:05:25.844Z,7.93
2023-02-03T18:07:53.854Z,8.73
2023-02-03T18:10:21.984Z,8.60
2023-02-03T18:12:51.388Z,8.00
2023-02-03T18:15:19.535Z,8.03
2023-02-03T18:17:47.546Z,7.90
2023-02-03T18:20:15.615Z,6.97
2023-02-03T18:22:45.521Z,8.53
2023-02-03T18:25:16.843Z,8.93
2023-02-03T18:27:44.930Z,11.17
2023-02-03T18:30:17.654Z,11.80
2023-02-03T18:32:47.098Z,11.60
2023-02-03T18:35:17.275Z,11.17
2023-02-03T18:37:45.367Z,9.67
2023-02-03T18:40:13.893Z,10.67
2023-02-03T18:42:41.917Z,14.80
2023-02-03T18:45:11.444Z,10.63
2023-02-03T18:47:41.022Z,8.63
2023-02-03T18:50:09.919Z,10.87
2023-02-03T18:52:38.694Z,11.47
2023-02-03T18:55:08.188Z,11.13
2023-02-03T18:57:36.242Z,10.20
2023-02-03T19:00:05.206Z,9.47
2023-02-03T19:02:33.402Z,8.73
2023-02-03T19:05:04.210Z,8.83
2023-02-03T19:07:32.404Z,7.23
2023-02-03T19:10:00.403Z,6.73
2023-02-03T19:12:28.716Z,6.53
2023-02-03T19:14:56.752Z,6.43
2023-02-03T19:17:24.898Z,5.40
2023-02-03T19:19:52.933Z,4.87
2023-02-03T19:22:22.339Z,4.40
2023-02-03T19:24:50.352Z,4.60
2023-02-03T19:27:18.437Z,5.47
2023-02-03T19:29:46.501Z,4.43
2023-02-03T19:32:15.139Z,5.07
2023-02-03T19:34:43.199Z,4.73
2023-02-03T19:37:11.561Z,4.50
2023-02-03T19:39:41.178Z,3.93
2023-02-03T19:42:09.461Z,4.67
2023-02-03T19:44:38.013Z,4.23
2023-02-03T19:47:06.236Z,3.47
2023-02-03T19:49:34.374Z,3.00
2023-02-03T19:52:02.518Z,3.30
2023-02-03T19:54:31.824Z,3.43
2023-02-03T19:57:01.864Z,3.50
2023-02-03T19:59:29.852Z,3.03
2023-02-03T20:01:59.813Z,3.50
2023-02-03T20:04:33.886Z,2.73
2023-02-03T20:07:01.936Z,2.63
2023-02-03T20:09:30.010Z,2.83
2023-02-03T20:11:58.058Z,3.17
2023-02-03T20:14:27.549Z,3.57
2023-02-03T20:16:55.563Z,3.23
2023-02-03T20:19:23.569Z,2.60
2023-02-03T20:21:51.598Z,3.00
2023-02-03T20:24:19.641Z,2.77
2023-02-03T20:26:47.649Z,2.70
2023-02-03T20:29:15.655Z,2.70
2023-02-03T20:31:45.169Z,2.63
2023-02-03T20:34:13.278Z,2.43
2023-02-03T20:36:41.301Z,2.60
2023-02-03T20:39:18.604Z,2.10
2023-02-03T20:41:46.671Z,2.07
2023-02-03T20:44:15.068Z,2.20
2023-02-03T20:46:44.453Z,2.20
2023-02-03T20:49:13.637Z,2.00
2023-02-03T20:51:41.641Z,2.10
2023-02-03T20:54:17.551Z,2.40
2023-02-03T20:56:46.094Z,1.90
2023-02-03T20:59:16.849Z,1.70
2023-02-03T21:01:46.366Z,1.67
2023-02-03T21:04:32.957Z,1.40
2023-02-03T21:07:01.783Z,1.50
2023-02-03T21:09:29.822Z,1.40
2023-02-03T21:11:57.871Z,1.20
2023-02-03T21:14:29.807Z,1.67
2023-02-03T21:16:59.170Z,1.30
2023-02-03T21:19:32.348Z,1.20
2023-02-03T21:22:04.379Z,1.20
2023-02-03T21:24:35.547Z,1.20
2023-02-03T21:27:03.757Z,0.83
2023-02-03T21:29:34.679Z,1.10
2023-02-03T21:32:05.074Z,0.80
2023-02-03T21:34:34.859Z,0.90
2023-02-03T21:37:15.728Z,1.00
2023-02-03T21:39:43.756Z,1.00
2023-02-03T21:42:40.923Z,0.90
2023-02-03T21:45:28.394Z,1.10
2023-02-03T21:47:59.462Z,0.83
2023-02-03T21:50:32.644Z,1.10
2023-02-03T21:53:22.533Z,1.00
2023-02-03T21:55:50.582Z,1.00
2023-02-03T21:58:24.380Z,0.90
2023-02-03T22:00:53.738Z,1.40
2023-02-03T22:03:28.067Z,1.13
2023-02-03T22:06:16.012Z,1.20
2023-02-03T22:08:45.995Z,1.20
2023-02-03T22:11:15.038Z,1.10
2023-02-03T22:13:43.817Z,1.20
2023-02-03T22:16:13.825Z,1.03
2023-02-03T22:18:43.214Z,1.20
2023-02-03T22:21:11.716Z,1.20
2023-02-03T22:23:40.168Z,1.27
2023-02-03T22:26:08.849Z,1.20
2023-02-03T22:28:37.350Z,1.03
2023-02-03T22:31:07.435Z,3.67
2023-02-03T22:33:43.275Z,2.73
2023-02-03T22:36:12.475Z,2.50
2023-02-03T22:38:41.940Z,1.70
2023-02-03T22:41:11.861Z,4.20
2023-02-03T22:43:40.824Z,13.20
2023-02-03T22:46:09.622Z,6.87
2023-02-03T22:48:37.675Z,5.00
2023-02-03T22:51:07.565Z,5.77
2023-02-03T22:53:35.765Z,3.80
2023-02-03T22:56:03.786Z,4.33
2023-02-03T22:58:31.797Z,8.87
2023-02-03T23:00:59.789Z,4.10
2023-02-03T23:03:27.940Z,5.73
2023-02-03T23:05:56.494Z,6.67
2023-02-03T23:08:26.078Z,5.97
2023-02-03T23:10:54.076Z,8.30
2023-02-03T23:13:22.048Z,4.60
2023-02-03T23:15:50.115Z,7.03
2023-02-03T23:18:18.161Z,5.37
2023-02-03T23:20:46.171Z,6.30
2023-02-03T23:23:14.280Z,7.37
2023-02-03T23:25:43.644Z,2.77
2023-02-03T23:28:11.697Z,2.83
2023-02-03T23:30:39.788Z,2.90
2023-02-03T23:33:10.049Z,1.80
2023-02-03T23:35:45.856Z,2.00
2023-02-03T23:38:14.114Z,1.47
2023-02-03T23:40:43.921Z,1.77
2023-02-03T23:43:12.055Z,1.63
2023-02-03T23:45:40.108Z,1.60
2023-02-03T23:48:08.718Z,1.87
2023-02-03T23:50:36.719Z,1.70
2023-02-03T23:53:04.789Z,1.60
2023-02-03T23:55:32.777Z,1.60
2023-02-03T23:58:02.158Z,1.50
